sensor_id;sensor_type;location;lat;lon;timestamp;P1;durP1;ratioP1;P2;durP2;ratioP2
52320;SDS011;38261;54.090;13.382;2023-04-25T00:00:55;5.37;;;3.17;;
52320;SDS011;38261;54.090;13.382;2023-04-25T00:02:17;3.13;;;2.80;;
52320;SDS011;38261;54.090;13.382;2023-04-25T00:03:41;3.93;;;2.77;;
52320;SDS011;38261;54.090;13.382;2023-04-25T00:05:03;8.97;;;3.53;;
52320;SDS011;38261;54.090;13.382;2023-04-25T00:06:26;7.37;;;3.00;;
52320;SDS011;38261;54.090;13.382;2023-04-25T00:07:49;4.33;;;3.07;;
52320;SDS011;38261;54.090;13.382;2023-04-25T00:09:11;4.00;;;3.00;;
52320;SDS011;38261;54.090;13.382;2023-04-25T00:10:33;4.60;;;3.70;;
52320;SDS011;38261;54.090;13.382;2023-04-25T00:11:55;7.03;;;3.50;;
52320;SDS011;38261;54.090;13.382;2023-04-25T00:13:17;7.17;;;4.60;;
52320;SDS011;38261;54.090;13.382;2023-04-25T00:14:40;3.50;;;3.20;;
52320;SDS011;38261;54.090;13.382;2023-04-25T00:16:02;4.67;;;3.27;;
52320;SDS011;38261;54.090;13.382;2023-04-25T00:17:25;5.27;;;2.70;;
52320;SDS011;38261;54.090;13.382;2023-04-25T00:18:48;6.97;;;3.53;;
52320;SDS011;38261;54.090;13.382;2023-04-25T00:20:12;3.87;;;3.10;;
52320;SDS011;38261;54.090;13.382;2023-04-25T00:21:35;4.43;;;3.40;;
52320;SDS011;38261;54.090;13.382;2023-04-25T00:22:59;5.83;;;3.20;;
52320;SDS011;38261;54.090;13.382;2023-04-25T00:24:21;5.60;;;3.50;;
52320;SDS011;38261;54.090;13.382;2023-04-25T00:25:46;4.47;;;3.80;;
52320;SDS011;38261;54.090;13.382;2023-04-25T00:27:09;4.23;;;3.00;;
52320;SDS011;38261;54.090;13.382;2023-04-25T00:28:32;9.17;;;4.00;;
52320;SDS011;38261;54.090;13.382;2023-04-25T00:29:54;5.13;;;3.50;;
52320;SDS011;38261;54.090;13.382;2023-04-25T00:31:16;4.33;;;3.40;;
52320;SDS011;38261;54.090;13.382;2023-04-25T00:32:38;3.93;;;3.10;;
52320;SDS011;38261;54.090;13.382;2023-04-25T00:34:00;4.80;;;3.30;;
52320;SDS011;38261;54.090;13.382;2023-04-25T00:35:22;3.77;;;3.37;;
52320;SDS011;38261;54.090;13.382;2023-04-25T00:36:44;6.50;;;3.43;;
52320;SDS011;38261;54.090;13.382;2023-04-25T00:38:07;6.73;;;3.40;;
52320;SDS011;38261;54.090;13.382;2023-04-25T00:39:29;7.63;;;3.47;;
52320;SDS011;38261;54.090;13.382;2023-04-25T00:40:51;4.17;;;3.07;;
52320;SDS011;38261;54.090;13.382;2023-04-25T00:42:14;5.50;;;3.60;;
52320;SDS011;38261;54.090;13.382;2023-04-25T00:43:37;7.10;;;3.30;;
52320;SDS011;38261;54.090;13.382;2023-04-25T00:45:00;3.50;;;3.03;;
52320;SDS011;38261;54.090;13.382;2023-04-25T00:46:23;4.87;;;3.30;;
52320;SDS011;38261;54.090;13.382;2023-04-25T00:47:45;5.03;;;3.47;;
52320;SDS011;38261;54.090;13.382;2023-04-25T00:49:08;5.60;;;3.53;;
52320;SDS011;38261;54.090;13.382;2023-04-25T00:50:36;6.63;;;3.60;;
52320;SDS011;38261;54.090;13.382;2023-04-25T00:51:59;4.50;;;3.00;;
52320;SDS011;38261;54.090;13.382;2023-04-25T00:53:21;9.10;;;3.50;;
52320;SDS011;38261;54.090;13.382;2023-04-25T00:54:44;8.67;;;3.23;;
52320;SDS011;38261;54.090;13.382;2023-04-25T00:56:07;6.60;;;3.60;;
52320;SDS011;38261;54.090;13.382;2023-04-25T00:57:29;5.67;;;3.23;;
52320;SDS011;38261;54.090;13.382;2023-04-25T00:58:52;5.07;;;2.73;;
52320;SDS011;38261;54.090;13.382;2023-04-25T01:00:18;3.33;;;2.70;;
52320;SDS011;38261;54.090;13.382;2023-04-25T01:01:41;3.80;;;2.80;;
52320;SDS011;38261;54.090;13.382;2023-04-25T01:03:04;3.20;;;2.90;;
52320;SDS011;38261;54.090;13.382;2023-04-25T01:04:27;8.13;;;3.00;;
52320;SDS011;38261;54.090;13.382;2023-04-25T01:05:50;6.37;;;2.70;;
52320;SDS011;38261;54.090;13.382;2023-04-25T01:07:13;7.00;;;2.93;;
52320;SDS011;38261;54.090;13.382;2023-04-25T01:08:36;4.80;;;3.17;;
52320;SDS011;38261;54.090;13.382;2023-04-25T01:09:59;4.13;;;3.40;;
52320;SDS011;38261;54.090;13.382;2023-04-25T01:11:22;6.50;;;3.47;;
52320;SDS011;38261;54.090;13.382;2023-04-25T01:12:44;4.10;;;2.57;;
52320;SDS011;38261;54.090;13.382;2023-04-25T01:14:06;8.10;;;3.23;;
52320;SDS011;38261;54.090;13.382;2023-04-25T01:15:28;5.70;;;3.77;;
52320;SDS011;38261;54.090;13.382;2023-04-25T01:16:51;5.90;;;3.20;;
52320;SDS011;38261;54.090;13.382;2023-04-25T01:18:14;7.63;;;3.57;;
52320;SDS011;38261;54.090;13.382;2023-04-25T01:19:37;4.23;;;3.07;;
52320;SDS011;38261;54.090;13.382;2023-04-25T01:21:06;9.27;;;3.30;;
52320;SDS011;38261;54.090;13.382;2023-04-25T01:22:32;3.20;;;2.90;;
52320;SDS011;38261;54.090;13.382;2023-04-25T01:23:54;6.83;;;3.13;;
52320;SDS011;38261;54.090;13.382;2023-04-25T01:25:17;3.70;;;3.30;;
52320;SDS011;38261;54.090;13.382;2023-04-25T01:26:40;7.00;;;3.83;;
52320;SDS011;38261;54.090;13.382;2023-04-25T01:28:06;6.13;;;3.30;;
52320;SDS011;38261;54.090;13.382;2023-04-25T01:29:29;4.27;;;3.33;;
52320;SDS011;38261;54.090;13.382;2023-04-25T01:30:52;9.47;;;3.40;;
52320;SDS011;38261;54.090;13.382;2023-04-25T01:32:14;4.60;;;3.50;;
52320;SDS011;38261;54.090;13.382;2023-04-25T01:33:37;7.93;;;3.53;;
52320;SDS011;38261;54.090;13.382;2023-04-25T01:34:59;9.60;;;3.47;;
52320;SDS011;38261;54.090;13.382;2023-04-25T01:36:22;6.20;;;3.37;;
52320;SDS011;38261;54.090;13.382;2023-04-25T01:37:44;6.53;;;3.30;;
52320;SDS011;38261;54.090;13.382;2023-04-25T01:39:06;6.57;;;3.77;;
52320;SDS011;38261;54.090;13.382;2023-04-25T01:40:29;5.00;;;3.57;;
52320;SDS011;38261;54.090;13.382;2023-04-25T01:41:51;4.10;;;2.63;;
52320;SDS011;38261;54.090;13.382;2023-04-25T01:43:13;5.17;;;3.70;;
52320;SDS011;38261;54.090;13.382;2023-04-25T01:44:36;5.10;;;3.70;;
52320;SDS011;38261;54.090;13.382;2023-04-25T01:45:58;4.50;;;3.13;;
52320;SDS011;38261;54.090;13.382;2023-04-25T01:47:20;6.60;;;2.93;;
52320;SDS011;38261;54.090;13.382;2023-04-25T01:48:43;3.43;;;2.87;;
52320;SDS011;38261;54.090;13.382;2023-04-25T01:50:06;9.03;;;5.20;;
52320;SDS011;38261;54.090;13.382;2023-04-25T01:51:29;5.20;;;2.93;;
52320;SDS011;38261;54.090;13.382;2023-04-25T01:52:51;3.50;;;2.90;;
52320;SDS011;38261;54.090;13.382;2023-04-25T01:54:15;10.10;;;3.90;;
52320;SDS011;38261;54.090;13.382;2023-04-25T01:55:38;5.77;;;3.70;;
52320;SDS011;38261;54.090;13.382;2023-04-25T01:57:00;7.20;;;3.37;;
52320;SDS011;38261;54.090;13.382;2023-04-25T01:58:23;4.67;;;3.70;;
52320;SDS011;38261;54.090;13.382;2023-04-25T01:59:45;5.20;;;3.67;;
52320;SDS011;38261;54.090;13.382;2023-04-25T02:01:07;6.00;;;3.93;;
52320;SDS011;38261;54.090;13.382;2023-04-25T02:02:29;4.90;;;3.20;;
52320;SDS011;38261;54.090;13.382;2023-04-25T02:03:52;6.23;;;3.17;;
52320;SDS011;38261;54.090;13.382;2023-04-25T02:05:15;6.20;;;3.20;;
52320;SDS011;38261;54.090;13.382;2023-04-25T02:06:38;5.30;;;3.37;;
52320;SDS011;38261;54.090;13.382;2023-04-25T02:08:00;5.80;;;3.63;;
52320;SDS011;38261;54.090;13.382;2023-04-25T02:09:22;7.50;;;4.13;;
52320;SDS011;38261;54.090;13.382;2023-04-25T02:10:44;7.60;;;4.20;;
52320;SDS011;38261;54.090;13.382;2023-04-25T02:12:07;4.97;;;3.57;;
52320;SDS011;38261;54.090;13.382;2023-04-25T02:13:30;5.80;;;3.50;;
52320;SDS011;38261;54.090;13.382;2023-04-25T02:14:52;5.40;;;3.70;;
52320;SDS011;38261;54.090;13.382;2023-04-25T02:16:14;4.50;;;3.70;;
52320;SDS011;38261;54.090;13.382;2023-04-25T02:17:36;5.47;;;3.30;;
52320;SDS011;38261;54.090;13.382;2023-04-25T02:18:59;7.40;;;3.77;;
52320;SDS011;38261;54.090;13.382;2023-04-25T02:20:21;9.77;;;4.30;;
52320;SDS011;38261;54.090;13.382;2023-04-25T02:21:44;7.70;;;4.20;;
52320;SDS011;38261;54.090;13.382;2023-04-25T02:23:07;7.93;;;4.47;;
52320;SDS011;38261;54.090;13.382;2023-04-25T02:24:29;4.03;;;3.47;;
52320;SDS011;38261;54.090;13.382;2023-04-25T02:25:51;6.23;;;3.63;;
52320;SDS011;38261;54.090;13.382;2023-04-25T02:27:14;5.50;;;4.30;;
52320;SDS011;38261;54.090;13.382;2023-04-25T02:28:36;4.00;;;3.60;;
52320;SDS011;38261;54.090;13.382;2023-04-25T02:29:58;4.73;;;3.90;;
52320;SDS011;38261;54.090;13.382;2023-04-25T02:31:20;8.10;;;4.33;;
52320;SDS011;38261;54.090;13.382;2023-04-25T02:32:43;6.80;;;3.67;;
52320;SDS011;38261;54.090;13.382;2023-04-25T02:34:05;5.80;;;3.93;;
52320;SDS011;38261;54.090;13.382;2023-04-25T02:35:27;4.93;;;3.77;;
52320;SDS011;38261;54.090;13.382;2023-04-25T02:36:49;7.63;;;3.90;;
52320;SDS011;38261;54.090;13.382;2023-04-25T02:38:14;7.37;;;4.30;;
52320;SDS011;38261;54.090;13.382;2023-04-25T02:39:36;6.33;;;4.50;;
52320;SDS011;38261;54.090;13.382;2023-04-25T02:40:58;4.67;;;4.00;;
52320;SDS011;38261;54.090;13.382;2023-04-25T02:42:20;6.10;;;4.20;;
52320;SDS011;38261;54.090;13.382;2023-04-25T02:43:42;7.17;;;3.63;;
52320;SDS011;38261;54.090;13.382;2023-04-25T02:45:04;7.93;;;4.00;;
52320;SDS011;38261;54.090;13.382;2023-04-25T02:46:27;7.47;;;4.00;;
52320;SDS011;38261;54.090;13.382;2023-04-25T02:48:00;4.03;;;3.63;;
52320;SDS011;38261;54.090;13.382;2023-04-25T02:49:23;8.87;;;3.90;;
52320;SDS011;38261;54.090;13.382;2023-04-25T02:50:45;5.30;;;3.87;;
52320;SDS011;38261;54.090;13.382;2023-04-25T02:52:07;9.80;;;4.83;;
52320;SDS011;38261;54.090;13.382;2023-04-25T02:53:30;8.03;;;4.47;;
52320;SDS011;38261;54.090;13.382;2023-04-25T02:54:52;6.03;;;4.23;;
52320;SDS011;38261;54.090;13.382;2023-04-25T02:56:14;7.23;;;4.50;;
52320;SDS011;38261;54.090;13.382;2023-04-25T02:57:36;5.00;;;4.50;;
52320;SDS011;38261;54.090;13.382;2023-04-25T02:58:58;6.87;;;4.03;;
52320;SDS011;38261;54.090;13.382;2023-04-25T03:00:21;7.97;;;4.80;;
52320;SDS011;38261;54.090;13.382;2023-04-25T03:01:43;6.30;;;4.97;;
52320;SDS011;38261;54.090;13.382;2023-04-25T03:03:06;7.53;;;4.60;;
52320;SDS011;38261;54.090;13.382;2023-04-25T03:04:28;7.53;;;4.23;;
52320;SDS011;38261;54.090;13.382;2023-04-25T03:05:51;5.63;;;4.13;;
52320;SDS011;38261;54.090;13.382;2023-04-25T03:07:13;5.63;;;4.03;;
52320;SDS011;38261;54.090;13.382;2023-04-25T03:08:35;6.37;;;4.30;;
52320;SDS011;38261;54.090;13.382;2023-04-25T03:09:57;8.37;;;4.53;;
52320;SDS011;38261;54.090;13.382;2023-04-25T03:11:19;8.23;;;5.03;;
52320;SDS011;38261;54.090;13.382;2023-04-25T03:12:41;9.60;;;4.90;;
52320;SDS011;38261;54.090;13.382;2023-04-25T03:14:03;7.03;;;4.20;;
52320;SDS011;38261;54.090;13.382;2023-04-25T03:15:26;7.13;;;4.63;;
52320;SDS011;38261;54.090;13.382;2023-04-25T03:16:48;11.13;;;4.37;;
52320;SDS011;38261;54.090;13.382;2023-04-25T03:18:10;6.80;;;4.10;;
52320;SDS011;38261;54.090;13.382;2023-04-25T03:19:32;6.73;;;4.60;;
52320;SDS011;38261;54.090;13.382;2023-04-25T03:20:54;7.03;;;4.03;;
52320;SDS011;38261;54.090;13.382;2023-04-25T03:22:16;7.17;;;4.50;;
52320;SDS011;38261;54.090;13.382;2023-04-25T03:23:38;9.50;;;4.27;;
52320;SDS011;38261;54.090;13.382;2023-04-25T03:25:00;7.73;;;4.50;;
52320;SDS011;38261;54.090;13.382;2023-04-25T03:26:22;7.87;;;4.37;;
52320;SDS011;38261;54.090;13.382;2023-04-25T03:27:44;5.67;;;3.60;;
52320;SDS011;38261;54.090;13.382;2023-04-25T03:29:06;5.00;;;4.00;;
52320;SDS011;38261;54.090;13.382;2023-04-25T03:30:29;6.70;;;3.50;;
52320;SDS011;38261;54.090;13.382;2023-04-25T03:31:51;7.70;;;4.00;;
52320;SDS011;38261;54.090;13.382;2023-04-25T03:33:13;10.50;;;4.10;;
52320;SDS011;38261;54.090;13.382;2023-04-25T03:34:35;7.17;;;3.70;;
52320;SDS011;38261;54.090;13.382;2023-04-25T03:35:57;11.07;;;3.87;;
52320;SDS011;38261;54.090;13.382;2023-04-25T03:37:19;6.20;;;3.37;;
52320;SDS011;38261;54.090;13.382;2023-04-25T03:38:41;6.00;;;3.87;;
52320;SDS011;38261;54.090;13.382;2023-04-25T03:40:03;6.00;;;2.67;;
52320;SDS011;38261;54.090;13.382;2023-04-25T03:41:26;7.63;;;3.50;;
52320;SDS011;38261;54.090;13.382;2023-04-25T03:42:49;8.93;;;3.53;;
52320;SDS011;38261;54.090;13.382;2023-04-25T03:44:11;5.63;;;3.40;;
52320;SDS011;38261;54.090;13.382;2023-04-25T03:45:33;6.13;;;3.63;;
52320;SDS011;38261;54.090;13.382;2023-04-25T03:46:56;7.77;;;3.10;;
52320;SDS011;38261;54.090;13.382;2023-04-25T03:48:18;11.40;;;3.63;;
52320;SDS011;38261;54.090;13.382;2023-04-25T03:49:43;5.97;;;3.30;;
52320;SDS011;38261;54.090;13.382;2023-04-25T03:51:06;8.80;;;3.10;;
52320;SDS011;38261;54.090;13.382;2023-04-25T03:52:28;6.20;;;3.33;;
52320;SDS011;38261;54.090;13.382;2023-04-25T03:53:50;10.47;;;2.90;;
52320;SDS011;38261;54.090;13.382;2023-04-25T03:55:13;7.43;;;3.00;;
52320;SDS011;38261;54.090;13.382;2023-04-25T03:56:35;8.13;;;2.90;;
52320;SDS011;38261;54.090;13.382;2023-04-25T03:57:58;10.97;;;3.30;;
52320;SDS011;38261;54.090;13.382;2023-04-25T03:59:20;7.23;;;3.80;;
52320;SDS011;38261;54.090;13.382;2023-04-25T04:00:42;3.30;;;2.87;;
52320;SDS011;38261;54.090;13.382;2023-04-25T04:02:04;6.83;;;3.10;;
52320;SDS011;38261;54.090;13.382;2023-04-25T04:03:26;8.03;;;3.20;;
52320;SDS011;38261;54.090;13.382;2023-04-25T04:04:48;6.73;;;3.10;;
52320;SDS011;38261;54.090;13.382;2023-04-25T04:06:11;6.87;;;2.80;;
52320;SDS011;38261;54.090;13.382;2023-04-25T04:07:34;10.60;;;3.60;;
52320;SDS011;38261;54.090;13.382;2023-04-25T04:09:01;6.37;;;3.23;;
52320;SDS011;38261;54.090;13.382;2023-04-25T04:10:23;7.47;;;2.80;;
52320;SDS011;38261;54.090;13.382;2023-04-25T04:11:47;8.27;;;3.10;;
52320;SDS011;38261;54.090;13.382;2023-04-25T04:13:09;6.03;;;3.10;;
52320;SDS011;38261;54.090;13.382;2023-04-25T04:14:31;10.90;;;3.53;;
52320;SDS011;38261;54.090;13.382;2023-04-25T04:15:53;10.27;;;3.83;;
52320;SDS011;38261;54.090;13.382;2023-04-25T04:17:17;4.57;;;2.80;;
52320;SDS011;38261;54.090;13.382;2023-04-25T04:18:39;11.90;;;3.37;;
52320;SDS011;38261;54.090;13.382;2023-04-25T04:20:01;10.13;;;4.10;;
52320;SDS011;38261;54.090;13.382;2023-04-25T04:21:25;11.63;;;3.00;;
52320;SDS011;38261;54.090;13.382;2023-04-25T04:22:48;6.67;;;3.60;;
52320;SDS011;38261;54.090;13.382;2023-04-25T04:24:10;7.33;;;3.50;;
52320;SDS011;38261;54.090;13.382;2023-04-25T04:25:32;8.30;;;3.77;;
52320;SDS011;38261;54.090;13.382;2023-04-25T04:26:54;8.63;;;3.50;;
52320;SDS011;38261;54.090;13.382;2023-04-25T04:28:17;8.87;;;3.40;;
52320;SDS011;38261;54.090;13.382;2023-04-25T04:29:39;4.77;;;2.67;;
52320;SDS011;38261;54.090;13.382;2023-04-25T04:31:01;6.13;;;2.77;;
52320;SDS011;38261;54.090;13.382;2023-04-25T04:32:25;9.03;;;3.53;;
52320;SDS011;38261;54.090;13.382;2023-04-25T04:33:47;6.33;;;3.60;;
52320;SDS011;38261;54.090;13.382;2023-04-25T04:35:10;4.00;;;2.70;;
52320;SDS011;38261;54.090;13.382;2023-04-25T04:36:32;8.23;;;3.23;;
52320;SDS011;38261;54.090;13.382;2023-04-25T04:37:54;5.63;;;3.30;;
52320;SDS011;38261;54.090;13.382;2023-04-25T04:39:17;5.13;;;3.47;;
52320;SDS011;38261;54.090;13.382;2023-04-25T04:40:39;6.80;;;3.50;;
52320;SDS011;38261;54.090;13.382;2023-04-25T04:42:02;5.20;;;3.47;;
52320;SDS011;38261;54.090;13.382;2023-04-25T04:43:24;6.70;;;3.80;;
52320;SDS011;38261;54.090;13.382;2023-04-25T04:44:46;9.27;;;3.60;;
52320;SDS011;38261;54.090;13.382;2023-04-25T04:46:08;6.70;;;3.20;;
52320;SDS011;38261;54.090;13.382;2023-04-25T04:47:31;10.07;;;3.60;;
52320;SDS011;38261;54.090;13.382;2023-04-25T04:48:54;8.13;;;3.97;;
52320;SDS011;38261;54.090;13.382;2023-04-25T04:50:17;9.27;;;3.90;;
52320;SDS011;38261;54.090;13.382;2023-04-25T04:51:40;5.17;;;3.70;;
52320;SDS011;38261;54.090;13.382;2023-04-25T04:53:03;9.23;;;4.03;;
52320;SDS011;38261;54.090;13.382;2023-04-25T04:54:26;6.33;;;3.60;;
52320;SDS011;38261;54.090;13.382;2023-04-25T04:55:48;7.60;;;3.67;;
52320;SDS011;38261;54.090;13.382;2023-04-25T04:57:11;6.97;;;4.10;;
52320;SDS011;38261;54.090;13.382;2023-04-25T04:58:33;11.13;;;3.63;;
52320;SDS011;38261;54.090;13.382;2023-04-25T04:59:55;7.30;;;3.00;;
52320;SDS011;38261;54.090;13.382;2023-04-25T05:01:18;10.90;;;3.00;;
52320;SDS011;38261;54.090;13.382;2023-04-25T05:02:40;8.73;;;2.83;;
52320;SDS011;38261;54.090;13.382;2023-04-25T05:04:02;5.13;;;3.40;;
52320;SDS011;38261;54.090;13.382;2023-04-25T05:05:25;7.70;;;3.50;;
52320;SDS011;38261;54.090;13.382;2023-04-25T05:06:47;14.77;;;3.00;;
52320;SDS011;38261;54.090;13.382;2023-04-25T05:08:09;8.50;;;3.30;;
52320;SDS011;38261;54.090;13.382;2023-04-25T05:09:32;7.57;;;2.70;;
52320;SDS011;38261;54.090;13.382;2023-04-25T05:10:54;8.30;;;2.90;;
52320;SDS011;38261;54.090;13.382;2023-04-25T05:12:16;7.33;;;3.40;;
52320;SDS011;38261;54.090;13.382;2023-04-25T05:13:38;7.80;;;3.13;;
52320;SDS011;38261;54.090;13.382;2023-04-25T05:15:00;6.20;;;3.27;;
52320;SDS011;38261;54.090;13.382;2023-04-25T05:16:22;8.47;;;2.70;;
52320;SDS011;38261;54.090;13.382;2023-04-25T05:17:44;12.33;;;3.77;;
52320;SDS011;38261;54.090;13.382;2023-04-25T05:19:07;10.50;;;3.50;;
52320;SDS011;38261;54.090;13.382;2023-04-25T05:20:29;8.17;;;3.30;;
52320;SDS011;38261;54.090;13.382;2023-04-25T05:21:51;14.10;;;2.77;;
52320;SDS011;38261;54.090;13.382;2023-04-25T05:23:14;14.93;;;2.60;;
52320;SDS011;38261;54.090;13.382;2023-04-25T05:24:36;9.90;;;2.50;;
52320;SDS011;38261;54.090;13.382;2023-04-25T05:25:59;6.63;;;2.80;;
52320;SDS011;38261;54.090;13.382;2023-04-25T05:27:21;11.73;;;2.47;;
52320;SDS011;38261;54.090;13.382;2023-04-25T05:28:43;14.40;;;2.87;;
52320;SDS011;38261;54.090;13.382;2023-04-25T05:30:05;7.13;;;2.43;;
52320;SDS011;38261;54.090;13.382;2023-04-25T05:31:28;10.63;;;2.40;;
52320;SDS011;38261;54.090;13.382;2023-04-25T05:32:50;10.70;;;2.90;;
52320;SDS011;38261;54.090;13.382;2023-04-25T05:34:12;12.40;;;2.50;;
52320;SDS011;38261;54.090;13.382;2023-04-25T05:35:35;10.07;;;3.30;;
52320;SDS011;38261;54.090;13.382;2023-04-25T05:36:57;13.97;;;3.30;;
52320;SDS011;38261;54.090;13.382;2023-04-25T05:38:19;10.37;;;2.73;;
52320;SDS011;38261;54.090;13.382;2023-04-25T05:39:41;10.23;;;3.93;;
52320;SDS011;38261;54.090;13.382;2023-04-25T05:41:03;11.10;;;2.80;;
52320;SDS011;38261;54.090;13.382;2023-04-25T05:42:25;12.20;;;2.73;;
52320;SDS011;38261;54.090;13.382;2023-04-25T05:43:47;14.93;;;3.23;;
52320;SDS011;38261;54.090;13.382;2023-04-25T05:45:11;10.20;;;2.43;;
52320;SDS011;38261;54.090;13.382;2023-04-25T05:46:34;11.17;;;2.97;;
52320;SDS011;38261;54.090;13.382;2023-04-25T05:47:56;14.10;;;3.30;;
52320;SDS011;38261;54.090;13.382;2023-04-25T05:49:18;12.13;;;2.60;;
52320;SDS011;38261;54.090;13.382;2023-04-25T05:50:40;15.03;;;3.50;;
52320;SDS011;38261;54.090;13.382;2023-04-25T05:52:02;9.63;;;3.63;;
52320;SDS011;38261;54.090;13.382;2023-04-25T05:53:24;8.53;;;2.27;;
52320;SDS011;38261;54.090;13.382;2023-04-25T05:54:46;10.00;;;2.60;;
52320;SDS011;38261;54.090;13.382;2023-04-25T05:56:09;18.20;;;2.97;;
52320;SDS011;38261;54.090;13.382;2023-04-25T05:57:31;10.10;;;2.70;;
52320;SDS011;38261;54.090;13.382;2023-04-25T05:58:53;12.83;;;2.57;;
52320;SDS011;38261;54.090;13.382;2023-04-25T06:00:15;13.00;;;3.10;;
52320;SDS011;38261;54.090;13.382;2023-04-25T06:01:37;14.90;;;3.33;;
52320;SDS011;38261;54.090;13.382;2023-04-25T06:02:59;13.13;;;3.77;;
52320;SDS011;38261;54.090;13.382;2023-04-25T06:04:23;9.03;;;3.07;;
52320;SDS011;38261;54.090;13.382;2023-04-25T06:05:47;23.20;;;2.77;;
52320;SDS011;38261;54.090;13.382;2023-04-25T06:07:09;15.43;;;3.40;;
52320;SDS011;38261;54.090;13.382;2023-04-25T06:08:31;16.50;;;2.50;;
52320;SDS011;38261;54.090;13.382;2023-04-25T06:09:53;13.07;;;3.10;;
52320;SDS011;38261;54.090;13.382;2023-04-25T06:11:15;10.27;;;2.43;;
52320;SDS011;38261;54.090;13.382;2023-04-25T06:12:37;8.47;;;3.00;;
52320;SDS011;38261;54.090;13.382;2023-04-25T06:14:00;16.23;;;3.40;;
52320;SDS011;38261;54.090;13.382;2023-04-25T06:15:22;9.47;;;2.60;;
52320;SDS011;38261;54.090;13.382;2023-04-25T06:16:49;13.13;;;2.97;;
52320;SDS011;38261;54.090;13.382;2023-04-25T06:18:11;10.77;;;2.43;;
52320;SDS011;38261;54.090;13.382;2023-04-25T06:19:34;14.63;;;2.97;;
52320;SDS011;38261;54.090;13.382;2023-04-25T06:20:57;17.77;;;3.67;;
52320;SDS011;38261;54.090;13.382;2023-04-25T06:22:19;12.03;;;2.80;;
52320;SDS011;38261;54.090;13.382;2023-04-25T06:23:41;14.70;;;3.30;;
52320;SDS011;38261;54.090;13.382;2023-04-25T06:25:03;18.87;;;3.43;;
52320;SDS011;38261;54.090;13.382;2023-04-25T06:26:25;23.27;;;3.40;;
52320;SDS011;38261;54.090;13.382;2023-04-25T06:27:48;12.93;;;3.40;;
52320;SDS011;38261;54.090;13.382;2023-04-25T06:29:10;9.30;;;2.70;;
52320;SDS011;38261;54.090;13.382;2023-04-25T06:30:32;7.90;;;2.93;;
52320;SDS011;38261;54.090;13.382;2023-04-25T06:31:54;25.70;;;3.43;;
52320;SDS011;38261;54.090;13.382;2023-04-25T06:33:16;12.60;;;2.87;;
52320;SDS011;38261;54.090;13.382;2023-04-25T06:34:38;7.53;;;2.97;;
52320;SDS011;38261;54.090;13.382;2023-04-25T06:36:00;11.67;;;3.17;;
52320;SDS011;38261;54.090;13.382;2023-04-25T06:37:22;12.17;;;2.57;;
52320;SDS011;38261;54.090;13.382;2023-04-25T06:38:44;11.47;;;2.80;;
52320;SDS011;38261;54.090;13.382;2023-04-25T06:40:07;13.40;;;2.60;;
52320;SDS011;38261;54.090;13.382;2023-04-25T06:41:29;20.87;;;3.20;;
52320;SDS011;38261;54.090;13.382;2023-04-25T06:42:51;13.27;;;3.00;;
52320;SDS011;38261;54.090;13.382;2023-04-25T06:44:13;13.90;;;3.13;;
52320;SDS011;38261;54.090;13.382;2023-04-25T06:45:36;16.43;;;3.07;;
52320;SDS011;38261;54.090;13.382;2023-04-25T06:46:58;10.57;;;2.63;;
52320;SDS011;38261;54.090;13.382;2023-04-25T06:48:20;11.63;;;3.03;;
52320;SDS011;38261;54.090;13.382;2023-04-25T06:49:43;17.67;;;3.53;;
52320;SDS011;38261;54.090;13.382;2023-04-25T06:51:05;14.27;;;2.30;;
52320;SDS011;38261;54.090;13.382;2023-04-25T06:52:27;15.83;;;3.27;;
52320;SDS011;38261;54.090;13.382;2023-04-25T06:53:49;14.87;;;3.27;;
52320;SDS011;38261;54.090;13.382;2023-04-25T06:55:11;14.53;;;2.53;;
52320;SDS011;38261;54.090;13.382;2023-04-25T06:56:33;21.20;;;3.30;;
52320;SDS011;38261;54.090;13.382;2023-04-25T06:57:55;11.73;;;2.70;;
52320;SDS011;38261;54.090;13.382;2023-04-25T06:59:18;13.63;;;3.63;;
52320;SDS011;38261;54.090;13.382;2023-04-25T07:00:40;20.27;;;3.40;;
52320;SDS011;38261;54.090;13.382;2023-04-25T07:02:02;17.23;;;3.30;;
52320;SDS011;38261;54.090;13.382;2023-04-25T07:03:25;8.50;;;3.13;;
52320;SDS011;38261;54.090;13.382;2023-04-25T07:04:47;19.90;;;4.50;;
52320;SDS011;38261;54.090;13.382;2023-04-25T07:06:09;15.70;;;3.90;;
52320;SDS011;38261;54.090;13.382;2023-04-25T07:07:31;14.47;;;2.63;;
52320;SDS011;38261;54.090;13.382;2023-04-25T07:08:54;11.60;;;3.53;;
52320;SDS011;38261;54.090;13.382;2023-04-25T07:10:17;15.83;;;3.13;;
52320;SDS011;38261;54.090;13.382;2023-04-25T07:11:39;13.60;;;2.90;;
52320;SDS011;38261;54.090;13.382;2023-04-25T07:13:01;10.23;;;2.60;;
52320;SDS011;38261;54.090;13.382;2023-04-25T07:14:23;8.57;;;2.53;;
52320;SDS011;38261;54.090;13.382;2023-04-25T07:15:45;16.73;;;3.30;;
52320;SDS011;38261;54.090;13.382;2023-04-25T07:17:09;11.53;;;2.90;;
52320;SDS011;38261;54.090;13.382;2023-04-25T07:18:31;10.20;;;2.60;;
52320;SDS011;38261;54.090;13.382;2023-04-25T07:19:53;7.20;;;2.97;;
52320;SDS011;38261;54.090;13.382;2023-04-25T07:21:15;10.63;;;2.40;;
52320;SDS011;38261;54.090;13.382;2023-04-25T07:22:37;9.33;;;2.30;;
52320;SDS011;38261;54.090;13.382;2023-04-25T07:24:00;11.23;;;3.60;;
52320;SDS011;38261;54.090;13.382;2023-04-25T07:25:22;14.77;;;2.70;;
52320;SDS011;38261;54.090;13.382;2023-04-25T07:26:44;14.13;;;2.90;;
52320;SDS011;38261;54.090;13.382;2023-04-25T07:28:06;10.67;;;3.27;;
52320;SDS011;38261;54.090;13.382;2023-04-25T07:29:29;8.47;;;2.87;;
52320;SDS011;38261;54.090;13.382;2023-04-25T07:30:52;10.77;;;2.93;;
52320;SDS011;38261;54.090;13.382;2023-04-25T07:32:14;13.13;;;3.40;;
52320;SDS011;38261;54.090;13.382;2023-04-25T07:33:36;21.83;;;2.73;;
52320;SDS011;38261;54.090;13.382;2023-04-25T07:34:58;18.57;;;3.03;;
52320;SDS011;38261;54.090;13.382;2023-04-25T07:36:20;19.40;;;3.90;;
52320;SDS011;38261;54.090;13.382;2023-04-25T07:37:43;16.67;;;2.97;;
52320;SDS011;38261;54.090;13.382;2023-04-25T07:39:05;10.27;;;2.60;;
52320;SDS011;38261;54.090;13.382;2023-04-25T07:40:27;16.10;;;3.20;;
52320;SDS011;38261;54.090;13.382;2023-04-25T07:41:50;14.80;;;3.63;;
52320;SDS011;38261;54.090;13.382;2023-04-25T07:43:15;14.67;;;3.27;;
52320;SDS011;38261;54.090;13.382;2023-04-25T07:44:38;10.17;;;2.70;;
52320;SDS011;38261;54.090;13.382;2023-04-25T07:46:01;10.60;;;2.93;;
52320;SDS011;38261;54.090;13.382;2023-04-25T07:47:24;12.73;;;3.20;;
52320;SDS011;38261;54.090;13.382;2023-04-25T07:48:47;20.13;;;3.83;;
52320;SDS011;38261;54.090;13.382;2023-04-25T07:50:10;18.97;;;2.97;;
52320;SDS011;38261;54.090;13.382;2023-04-25T07:51:32;9.20;;;3.47;;
52320;SDS011;38261;54.090;13.382;2023-04-25T07:52:54;13.03;;;2.97;;
52320;SDS011;38261;54.090;13.382;2023-04-25T07:54:17;12.07;;;2.83;;
52320;SDS011;38261;54.090;13.382;2023-04-25T07:55:39;13.30;;;3.13;;
52320;SDS011;38261;54.090;13.382;2023-04-25T07:57:01;16.53;;;2.97;;
52320;SDS011;38261;54.090;13.382;2023-04-25T07:58:23;14.83;;;3.10;;
52320;SDS011;38261;54.090;13.382;2023-04-25T07:59:46;11.27;;;3.50;;
52320;SDS011;38261;54.090;13.382;2023-04-25T08:01:08;12.83;;;3.47;;
52320;SDS011;38261;54.090;13.382;2023-04-25T08:02:30;8.53;;;3.03;;
52320;SDS011;38261;54.090;13.382;2023-04-25T08:03:52;12.40;;;2.83;;
52320;SDS011;38261;54.090;13.382;2023-04-25T08:05:15;12.80;;;3.03;;
52320;SDS011;38261;54.090;13.382;2023-04-25T08:06:40;13.47;;;2.67;;
52320;SDS011;38261;54.090;13.382;2023-04-25T08:08:03;13.23;;;3.67;;